BKF weather

Lake Brooks Seaplane Base
Katmai National Park, Alaska, United States

Public forecast

Using degrees Fahrenheit for public forecast. Weather courtesy of forecast.io.

METAR (pilot weather report)

Closest report is King Salmon Airport, 28.2 nm (52.3 km) WNW. Retrieved 2019/07/23 05:54 UTC (19 minutes ago):

PAKN 230554Z AUTO 29005KT 7SM CLR 17/13 A2997

TAF (pilot weather forecast)

Closest forecast is King Salmon Airport, 28.2 nm (52.3 km) WNW. Retrieved 2019/07/23 06:30 UTC (0 seconds ago):

TAF PAKN 230526Z 2306/2406 VRB03KT P6SM SKC